Du har inga inställningar för hoppväder.nu

Hoppväder.nu

Senast uppdaterat 05:25

UTC-tid

2020-01-29 kl. 04:25


Sol och måne

Solen går upp 8:25 och går ner 15:19 (beräknade cirkatider)
Nästa fullmåne blir om 11 dagar (2020-02-09)

METAR

ESNU (Umeå)
(35 minuter sedan)
ESNU 290350Z 01006KT 330V050 2400 SG OVC008 M05/M05 Q0999 RWY 14 ICE 11-25 PCT FCT 0.40=



ESNO (Örnsköldsvik)
(35 minuter sedan)
ESNO 290350Z AUTO 03010KT 360V080 9999 SG FEW005/// OVC007/// M04/M04 Q0997 RESG=



ESNS (Skellefteå)
(35 minuter sedan)
ESNS 290350Z AUTO 36008KT 9999 OVC006/// M07/M08 Q1001=









TAF

ESNU (Umeå)
(115 minuter sedan)
ESNU 290230Z 2903/2912 02006KT 5000 -SN SCT007 BKN015 TEMPO 2903/2912 2000 SN BR BKN003=



ESNO (Örnsköldsvik)
ESNO



ESNS (Skellefteå)
ESNS





Kodnycklar till TAF och METAR






LHP

(Umeå är område A1c i Norra delen)

Prognos är inte uppdaterad




Spotting

Hur fungerar spotthjälpen och Vindkartan?

Markvind är ca 0 m/s.



Vindkartan

Senast uppdaterad 05:25




All data kommer från LFV.se